Time;durP1;ratioP1;P1;durP2;ratioP2;P2;SDS_P1;SDS_P2;PMS_P1;PMS_P2;Temp;Humidity;BMP_temperature;BMP_pressure;BME280_temperature;BME280_humidity;BME280_pressure;Samples;Min_cycle;Max_cycle;Signal;HPM_P1;HPM_P2
2023/05/18 19:35:32;;;;;;;2.97;2.00;;;;;;;19.79;56.14;98015.00;5685930;23;20210;-88
2023/05/18 19:38:03;;;;;;;2.13;1.67;;;;;;;18.89;56.05;97858.84;4927268;29;20186;-88
2023/05/18 19:40:37;;;;;;;4.23;1.80;;;;;;;18.50;56.01;97800.19;4911748;29;20269;-88
2023/05/18 19:43:16;;;;;;;1.93;1.80;;;;;;;18.58;56.15;97820.09;4898321;29;20194;-89
2023/05/18 19:45:52;;;;;;;1.77;1.67;;;;;;;18.72;55.92;97849.59;4921291;29;20217;-88
2023/05/18 19:48:27;;;;;;;2.30;2.10;;;;;;;19.00;56.00;97890.78;4896988;29;20186;-88
2023/05/18 19:51:07;;;;;;;4.40;1.90;;;;;;;18.99;56.16;97895.78;4908833;29;20202;-88
2023/05/18 19:53:38;;;;;;;4.50;2.10;;;;;;;18.60;56.16;97833.78;4913854;29;20186;-89
2023/05/18 19:56:22;;;;;;;3.07;2.00;;;;;;;19.07;56.19;97907.22;4893835;29;20219;-89
2023/05/18 19:59:14;;;;;;;2.27;1.90;;;;;;;18.55;55.97;97835.22;4888815;29;20190;-88
2023/05/18 20:02:05;;;;;;;2.13;1.80;;;;;;;18.87;56.10;97875.75;4910876;29;20179;-88
2023/05/18 20:04:40;;;;;;;1.70;1.60;;;;;;;19.53;56.13;97992.56;4930377;29;20177;-88
2023/05/18 20:07:17;;;;;;;2.17;1.97;;;;;;;18.48;56.21;97820.50;4897498;29;20205;-88
2023/05/18 20:10:06;;;;;;;3.70;2.10;;;;;;;18.70;56.08;97863.03;4904721;29;20162;-88
2023/05/18 20:12:39;;;;;;;1.60;1.50;;;;;;;18.75;56.31;97861.59;4945782;29;20181;-88
2023/05/18 20:15:28;;;;;;;2.00;1.70;;;;;;;18.47;56.25;97825.50;4942582;29;20185;-88
2023/05/18 20:18:01;;;;;;;3.00;2.10;;;;;;;18.46;56.23;97832.25;4917967;29;20169;-88
2023/05/18 20:20:48;;;;;;;1.90;1.70;;;;;;;19.30;56.10;97968.59;4893284;29;20305;-89
2023/05/18 20:23:22;;;;;;;2.00;1.80;;;;;;;18.63;56.19;97855.94;4890712;29;20189;-88
2023/05/18 20:25:58;;;;;;;1.43;1.33;;;;;;;19.02;56.06;97919.75;4912046;29;20186;-88
2023/05/18 20:28:54;;;;;;;2.23;1.60;;;;;;;19.13;55.98;97945.69;4909430;29;20177;-89
2023/05/18 20:31:28;;;;;;;2.30;2.00;;;;;;;18.50;55.85;97849.41;4907740;29;20179;-88
2023/05/18 20:34:01;;;;;;;2.30;1.93;;;;;;;18.54;56.08;97852.97;4894043;29;20218;-89
2023/05/18 20:36:40;;;;;;;1.60;1.50;;;;;;;19.79;56.20;98055.81;4896957;29;20203;-88
2023/05/18 20:39:15;;;;;;;2.00;1.80;;;;;;;18.59;55.92;97861.69;4911884;29;20194;-87
2023/05/18 20:41:46;;;;;;;2.33;1.73;;;;;;;18.47;56.07;97841.63;4880751;29;20191;-90
2023/05/18 20:44:22;;;;;;;2.57;1.80;;;;;;;19.78;56.07;98075.31;4910611;29;20187;-89
2023/05/18 20:46:53;;;;;;;2.10;1.90;;;;;;;19.47;56.11;98010.13;4911752;29;20194;-89
2023/05/18 20:49:26;;;;;;;1.80;1.60;;;;;;;18.46;56.06;97850.06;4892725;29;20187;-88
2023/05/18 20:52:07;;;;;;;1.90;1.80;;;;;;;18.49;56.35;97847.66;4915392;29;20158;-87
2023/05/18 20:54:36;;;;;;;2.10;1.90;;;;;;;18.44;56.31;97835.53;4897900;29;20186;-88
2023/05/18 20:57:12;;;;;;;1.60;1.50;;;;;;;18.49;56.35;97855.31;4897044;29;20194;-89
2023/05/18 20:59:44;;;;;;;1.90;1.70;;;;;;;18.59;56.39;97866.78;4896590;29;20158;-88
2023/05/18 21:02:18;;;;;;;3.97;1.80;;;;;;;18.63;56.10;97882.28;4910726;29;20198;-88
2023/05/18 21:04:56;;;;;;;1.70;1.60;;;;;;;19.78;56.14;98075.31;4914803;29;20194;-88
2023/05/18 21:07:27;;;;;;;1.80;1.70;;;;;;;18.63;56.24;97874.63;4914638;29;20181;-88
2023/05/18 21:10:06;;;;;;;2.00;1.80;;;;;;;18.37;56.33;97834.38;4892962;29;20207;-89
2023/05/18 21:12:38;;;;;;;2.37;2.00;;;;;;;18.55;56.25;97862.34;4896487;29;20195;-88
2023/05/18 21:15:15;;;;;;;3.00;1.80;;;;;;;18.66;56.05;97881.53;4897691;29;20187;-89
2023/05/18 21:17:49;;;;;;;1.97;1.73;;;;;;;18.74;56.32;97880.22;4930731;29;20158;-88
2023/05/18 21:20:22;;;;;;;2.00;1.80;;;;;;;18.47;56.46;97840.78;4925944;29;20174;-89
2023/05/18 21:22:54;;;;;;;2.00;1.80;;;;;;;18.63;56.24;97871.22;4902890;29;20210;-88
2023/05/18 21:25:39;;;;;;;1.70;1.60;;;;;;;18.59;56.41;97870.19;4916457;29;20203;-89
2023/05/18 21:28:16;;;;;;;2.20;2.00;;;;;;;18.74;56.41;97892.94;4891594;29;20191;-88
2023/05/18 21:31:00;;;;;;;2.77;1.57;;;;;;;19.78;56.21;98066.81;4912847;29;20191;-89
2023/05/18 21:33:33;;;;;;;2.20;1.77;;;;;;;18.68;56.14;97882.47;4910016;29;20183;-88
2023/05/18 21:36:04;;;;;;;1.97;1.77;;;;;;;18.63;56.40;97873.75;4926647;29;20265;-88
2023/05/18 21:38:32;;;;;;;1.90;1.60;;;;;;;19.08;56.47;97945.50;4908946;29;20199;-88
2023/05/18 21:41:03;;;;;;;1.90;1.70;;;;;;;19.48;56.40;98015.31;4910061;29;20207;-88
2023/05/18 21:43:50;;;;;;;1.80;1.70;;;;;;;18.54;56.48;97858.94;4911574;29;20205;-88
2023/05/18 21:46:21;;;;;;;2.77;1.70;;;;;;;18.65;56.37;97880.66;4910528;29;20178;-89
2023/05/18 21:48:56;;;;;;;1.70;1.60;;;;;;;18.65;56.25;97885.75;4925225;29;20185;-89
2023/05/18 21:51:24;;;;;;;2.30;2.00;;;;;;;18.99;56.46;97939.97;4902699;29;20199;-88
2023/05/18 21:54:02;;;;;;;1.77;1.53;;;;;;;18.46;56.73;97849.19;4916635;29;20350;-88
2023/05/18 21:56:35;;;;;;;2.80;1.60;;;;;;;18.75;56.31;97889.59;4904989;29;20224;-89
2023/05/18 21:59:10;;;;;;;1.67;1.50;;;;;;;18.68;56.28;97885.03;4909932;29;20174;-88
2023/05/18 22:01:41;;;;;;;1.80;1.70;;;;;;;18.71;56.29;97892.81;4930226;29;20189;-89
2023/05/18 22:04:10;;;;;;;2.47;1.87;;;;;;;19.64;56.29;98035.59;4914296;29;20210;-88
2023/05/18 22:06:40;;;;;;;1.60;1.50;;;;;;;19.00;56.32;97923.00;4891033;29;20191;-89
2023/05/18 22:09:15;;;;;;;1.83;1.70;;;;;;;18.70;56.65;97874.09;4914403;29;20190;-89
2023/05/18 22:11:47;;;;;;;1.97;1.77;;;;;;;18.52;56.54;97844.38;4930720;29;20158;-89
2023/05/18 22:14:30;;;;;;;1.77;1.60;;;;;;;18.47;56.35;97828.06;4901196;29;20159;-88
2023/05/18 22:17:01;;;;;;;3.23;1.70;;;;;;;19.76;56.38;98050.56;4891885;29;20187;-89
2023/05/18 22:19:31;;;;;;;1.70;1.60;;;;;;;18.65;56.36;97857.75;4909765;29;20182;-89
2023/05/18 22:22:19;;;;;;;1.80;1.70;;;;;;;19.34;56.38;97973.06;4892054;29;20256;-88
2023/05/18 22:24:56;;;;;;;2.00;1.80;;;;;;;18.85;56.42;97890.09;4905538;29;20178;-88
2023/05/18 22:27:28;;;;;;;1.87;1.70;;;;;;;18.59;56.28;97847.28;4896759;29;20194;-88
2023/05/18 22:30:05;;;;;;;1.67;1.50;;;;;;;19.76;56.46;98038.69;4943577;29;20177;-88
2023/05/18 22:32:35;;;;;;;1.60;1.50;;;;;;;18.79;56.33;97866.00;4924940;29;20202;-88
2023/05/18 22:35:07;;;;;;;1.77;1.67;;;;;;;19.17;56.49;97935.72;4906541;29;20163;-89
2023/05/18 22:37:47;;;;;;;1.70;1.60;;;;;;;19.21;56.55;97936.69;4910453;29;20178;-89
2023/05/18 22:40:21;;;;;;;2.10;1.90;;;;;;;18.68;56.69;97846.84;4904780;29;20257;-89
2023/05/18 22:43:07;;;;;;;1.73;1.63;;;;;;;18.48;56.57;97829.78;4897318;29;20210;-88
2023/05/18 22:45:44;;;;;;;1.87;1.77;;;;;;;18.70;56.49;97861.38;4924251;29;20171;-88
2023/05/18 22:48:15;;;;;;;1.80;1.70;;;;;;;19.74;56.44;98032.66;4908656;29;20194;-88
2023/05/18 22:50:45;;;;;;;1.77;1.67;;;;;;;19.04;56.58;97913.00;4908969;29;20219;-89
2023/05/18 22:53:20;;;;;;;1.77;1.67;;;;;;;18.70;56.56;97866.47;4902537;29;20178;-88
2023/05/18 22:55:57;;;;;;;1.80;1.70;;;;;;;19.35;56.57;97973.91;4905312;29;20187;-88
2023/05/18 22:58:31;;;;;;;2.00;1.80;;;;;;;19.16;56.50;97943.28;4890521;29;20191;-88
2023/05/18 23:01:02;;;;;;;1.63;1.53;;;;;;;18.68;56.60;97862.97;4893440;29;20210;-89
2023/05/18 23:03:45;;;;;;;1.97;1.70;;;;;;;18.58;56.62;97839.56;4915051;29;20167;-89
2023/05/18 23:06:14;;;;;;;1.60;1.50;;;;;;;18.56;56.56;97836.09;4892843;29;20193;-89
2023/05/18 23:08:42;;;;;;;1.97;1.60;;;;;;;18.64;56.45;97848.38;4885048;29;20189;-89
2023/05/18 23:11:11;;;;;;;2.03;1.83;;;;;;;18.66;56.55;97853.53;4907287;29;20246;-88
2023/05/18 23:13:42;;;;;;;1.77;1.63;;;;;;;18.56;56.91;97828.47;4908561;29;20185;-87
2023/05/18 23:16:17;;;;;;;2.47;1.57;;;;;;;18.96;56.51;97888.00;4909026;29;20187;-89
2023/05/18 23:19:10;;;;;;;1.77;1.60;;;;;;;19.76;56.44;98027.63;4914135;29;20162;-88
2023/05/18 23:21:45;;;;;;;1.80;1.70;;;;;;;18.60;56.47;97840.53;4909287;29;20194;-88
2023/05/18 23:24:17;;;;;;;1.70;1.60;;;;;;;18.61;56.71;97834.63;4909319;29;20193;-89
2023/05/18 23:26:52;;;;;;;2.10;1.90;;;;;;;19.08;56.47;97925.09;4922611;29;20184;-88
2023/05/18 23:29:35;;;;;;;1.60;1.50;;;;;;;18.56;56.62;97824.22;4910564;29;20162;-88
2023/05/18 23:32:18;;;;;;;1.60;1.50;;;;;;;18.58;56.30;97822.63;4930194;29;20182;-88
2023/05/18 23:34:54;;;;;;;1.60;1.50;;;;;;;19.34;56.57;97944.16;4885568;29;20187;-88
2023/05/18 23:37:38;;;;;;;1.80;1.70;;;;;;;18.79;56.49;97863.47;4866401;29;20208;-88
2023/05/18 23:40:13;;;;;;;2.03;1.83;;;;;;;18.54;56.48;97823.31;4846287;29;20190;-88
2023/05/18 23:42:42;;;;;;;1.80;1.70;;;;;;;18.68;56.40;97841.75;4863612;29;20191;-89
2023/05/18 23:45:16;;;;;;;1.90;1.80;;;;;;;19.11;56.43;97912.50;4861039;29;20183;-89
2023/05/18 23:47:47;;;;;;;1.63;1.53;;;;;;;18.70;56.78;97845.22;4865224;29;20183;-88
2023/05/18 23:50:15;;;;;;;1.70;1.60;;;;;;;18.58;56.67;97827.72;4844713;29;20244;-89
2023/05/18 23:52:55;;;;;;;2.00;1.70;;;;;;;18.54;56.45;97823.31;4860102;29;20176;-88
2023/05/18 23:55:29;;;;;;;1.90;1.70;;;;;;;18.97;56.60;97875.34;4874804;29;20201;-88
2023/05/18 23:58:18;;;;;;;1.80;1.70;;;;;;;18.51;56.75;97807.03;4875864;29;20176;-89
